sensor_id;sensor_type;location;lat;lon;timestamp;P1;durP1;ratioP1;P2;durP2;ratioP2
8929;SDS011;4500;49.074;9.110;2023-04-21T00:01:53;3.67;;;3.50;;
8929;SDS011;4500;49.074;9.110;2023-04-21T00:04:21;3.57;;;3.37;;
8929;SDS011;4500;49.074;9.110;2023-04-21T00:06:49;3.27;;;3.17;;
8929;SDS011;4500;49.074;9.110;2023-04-21T00:09:19;4.90;;;4.60;;
8929;SDS011;4500;49.074;9.110;2023-04-21T00:11:47;4.70;;;4.50;;
8929;SDS011;4500;49.074;9.110;2023-04-21T00:14:15;3.27;;;3.17;;
8929;SDS011;4500;49.074;9.110;2023-04-21T00:16:43;1.47;;;1.47;;
8929;SDS011;4500;49.074;9.110;2023-04-21T00:19:10;2.87;;;2.77;;
8929;SDS011;4500;49.074;9.110;2023-04-21T00:21:39;1.83;;;1.77;;
8929;SDS011;4500;49.074;9.110;2023-04-21T00:24:07;1.33;;;1.33;;
8929;SDS011;4500;49.074;9.110;2023-04-21T00:26:34;0.70;;;0.70;;
8929;SDS011;4500;49.074;9.110;2023-04-21T00:29:02;0.80;;;0.80;;
8929;SDS011;4500;49.074;9.110;2023-04-21T00:31:30;0.93;;;0.93;;
8929;SDS011;4500;49.074;9.110;2023-04-21T00:33:57;0.80;;;0.80;;
8929;SDS011;4500;49.074;9.110;2023-04-21T00:36:25;2.10;;;2.00;;
8929;SDS011;4500;49.074;9.110;2023-04-21T00:38:54;2.90;;;2.80;;
8929;SDS011;4500;49.074;9.110;2023-04-21T00:41:21;4.13;;;3.93;;
8929;SDS011;4500;49.074;9.110;2023-04-21T00:44:05;3.77;;;3.57;;
8929;SDS011;4500;49.074;9.110;2023-04-21T00:46:34;1.73;;;1.63;;
8929;SDS011;4500;49.074;9.110;2023-04-21T00:49:04;0.73;;;0.73;;
8929;SDS011;4500;49.074;9.110;2023-04-21T00:51:33;0.83;;;0.83;;
8929;SDS011;4500;49.074;9.110;2023-04-21T00:54:06;0.90;;;0.90;;
8929;SDS011;4500;49.074;9.110;2023-04-21T00:56:34;1.40;;;1.40;;
8929;SDS011;4500;49.074;9.110;2023-04-21T00:59:03;27.70;;;9.90;;
8929;SDS011;4500;49.074;9.110;2023-04-21T01:01:31;0.70;;;0.70;;
8929;SDS011;4500;49.074;9.110;2023-04-21T01:04:00;0.90;;;0.90;;
8929;SDS011;4500;49.074;9.110;2023-04-21T01:06:30;0.80;;;0.80;;
8929;SDS011;4500;49.074;9.110;2023-04-21T01:08:59;0.80;;;0.80;;
8929;SDS011;4500;49.074;9.110;2023-04-21T01:11:27;0.70;;;0.70;;
8929;SDS011;4500;49.074;9.110;2023-04-21T01:13:54;4.83;;;4.63;;
8929;SDS011;4500;49.074;9.110;2023-04-21T01:16:22;3.03;;;2.93;;
8929;SDS011;4500;49.074;9.110;2023-04-21T01:18:50;3.87;;;3.67;;
8929;SDS011;4500;49.074;9.110;2023-04-21T01:21:19;3.77;;;3.57;;
8929;SDS011;4500;49.074;9.110;2023-04-21T01:23:47;5.30;;;5.07;;
8929;SDS011;4500;49.074;9.110;2023-04-21T01:26:18;11.60;;;10.63;;
8929;SDS011;4500;49.074;9.110;2023-04-21T01:28:47;5.27;;;5.03;;
8929;SDS011;4500;49.074;9.110;2023-04-21T01:31:15;3.53;;;3.37;;
8929;SDS011;4500;49.074;9.110;2023-04-21T01:33:42;4.37;;;4.10;;
8929;SDS011;4500;49.074;9.110;2023-04-21T01:36:10;2.23;;;2.13;;
8929;SDS011;4500;49.074;9.110;2023-04-21T01:38:40;1.30;;;1.27;;
8929;SDS011;4500;49.074;9.110;2023-04-21T01:41:08;2.13;;;2.03;;
8929;SDS011;4500;49.074;9.110;2023-04-21T01:43:36;1.43;;;1.40;;
8929;SDS011;4500;49.074;9.110;2023-04-21T01:46:04;0.80;;;0.80;;
8929;SDS011;4500;49.074;9.110;2023-04-21T01:48:33;2.00;;;1.90;;
8929;SDS011;4500;49.074;9.110;2023-04-21T01:51:02;0.90;;;0.90;;
8929;SDS011;4500;49.074;9.110;2023-04-21T01:53:31;0.87;;;0.87;;
8929;SDS011;4500;49.074;9.110;2023-04-21T01:55:58;0.83;;;0.83;;
8929;SDS011;4500;49.074;9.110;2023-04-21T01:58:26;1.43;;;1.43;;
8929;SDS011;4500;49.074;9.110;2023-04-21T02:00:54;3.37;;;3.27;;
8929;SDS011;4500;49.074;9.110;2023-04-21T02:03:21;4.90;;;4.60;;
8929;SDS011;4500;49.074;9.110;2023-04-21T02:05:49;3.93;;;3.73;;
8929;SDS011;4500;49.074;9.110;2023-04-21T02:08:17;4.90;;;4.70;;
8929;SDS011;4500;49.074;9.110;2023-04-21T02:10:44;4.23;;;4.03;;
8929;SDS011;4500;49.074;9.110;2023-04-21T02:13:12;3.53;;;3.33;;
8929;SDS011;4500;49.074;9.110;2023-04-21T02:15:39;1.92;;;1.85;;
8929;SDS011;4500;49.074;9.110;2023-04-21T02:18:07;0.90;;;0.90;;
8929;SDS011;4500;49.074;9.110;2023-04-21T02:20:34;1.67;;;1.58;;
8929;SDS011;4500;49.074;9.110;2023-04-21T02:23:03;1.87;;;1.77;;
8929;SDS011;4500;49.074;9.110;2023-04-21T02:25:31;0.90;;;0.90;;
8929;SDS011;4500;49.074;9.110;2023-04-21T02:27:58;1.00;;;1.00;;
8929;SDS011;4500;49.074;9.110;2023-04-21T02:30:26;1.83;;;1.73;;
8929;SDS011;4500;49.074;9.110;2023-04-21T02:32:53;4.72;;;4.53;;
8929;SDS011;4500;49.074;9.110;2023-04-21T02:35:21;13.85;;;12.63;;
8929;SDS011;4500;49.074;9.110;2023-04-21T02:37:49;4.53;;;4.33;;
8929;SDS011;4500;49.074;9.110;2023-04-21T02:40:16;3.93;;;3.73;;
8929;SDS011;4500;49.074;9.110;2023-04-21T02:42:44;5.67;;;5.40;;
8929;SDS011;4500;49.074;9.110;2023-04-21T02:45:11;4.10;;;3.90;;
8929;SDS011;4500;49.074;9.110;2023-04-21T02:47:38;4.93;;;4.65;;
8929;SDS011;4500;49.074;9.110;2023-04-21T02:50:06;0.90;;;0.90;;
8929;SDS011;4500;49.074;9.110;2023-04-21T02:52:34;1.00;;;1.00;;
8929;SDS011;4500;49.074;9.110;2023-04-21T02:55:03;0.80;;;0.80;;
8929;SDS011;4500;49.074;9.110;2023-04-21T02:57:32;0.98;;;0.98;;
8929;SDS011;4500;49.074;9.110;2023-04-21T02:59:59;0.90;;;0.90;;
8929;SDS011;4500;49.074;9.110;2023-04-21T03:02:27;2.60;;;2.50;;
8929;SDS011;4500;49.074;9.110;2023-04-21T03:04:54;7.57;;;5.50;;
8929;SDS011;4500;49.074;9.110;2023-04-21T03:07:22;4.07;;;3.87;;
8929;SDS011;4500;49.074;9.110;2023-04-21T03:09:49;4.30;;;4.10;;
8929;SDS011;4500;49.074;9.110;2023-04-21T03:12:16;4.55;;;4.35;;
8929;SDS011;4500;49.074;9.110;2023-04-21T03:14:44;3.85;;;3.65;;
8929;SDS011;4500;49.074;9.110;2023-04-21T03:17:12;3.20;;;3.10;;
8929;SDS011;4500;49.074;9.110;2023-04-21T03:19:40;2.50;;;2.40;;
8929;SDS011;4500;49.074;9.110;2023-04-21T03:22:08;4.03;;;2.70;;
8929;SDS011;4500;49.074;9.110;2023-04-21T03:24:36;1.00;;;1.00;;
8929;SDS011;4500;49.074;9.110;2023-04-21T03:27:04;1.00;;;1.00;;
8929;SDS011;4500;49.074;9.110;2023-04-21T03:29:34;0.90;;;0.90;;
8929;SDS011;4500;49.074;9.110;2023-04-21T03:32:02;0.88;;;0.88;;
8929;SDS011;4500;49.074;9.110;2023-04-21T03:34:30;1.00;;;1.00;;
8929;SDS011;4500;49.074;9.110;2023-04-21T03:36:57;1.00;;;1.00;;
8929;SDS011;4500;49.074;9.110;2023-04-21T03:39:24;3.10;;;3.00;;
8929;SDS011;4500;49.074;9.110;2023-04-21T03:41:52;4.53;;;4.33;;
8929;SDS011;4500;49.074;9.110;2023-04-21T03:44:19;4.30;;;4.10;;
8929;SDS011;4500;49.074;9.110;2023-04-21T03:46:47;5.38;;;5.13;;
8929;SDS011;4500;49.074;9.110;2023-04-21T03:49:14;5.03;;;4.82;;
8929;SDS011;4500;49.074;9.110;2023-04-21T03:51:42;3.63;;;3.42;;
8929;SDS011;4500;49.074;9.110;2023-04-21T03:54:10;2.13;;;2.05;;
8929;SDS011;4500;49.074;9.110;2023-04-21T03:56:37;1.17;;;1.17;;
8929;SDS011;4500;49.074;9.110;2023-04-21T03:59:05;0.80;;;0.80;;
8929;SDS011;4500;49.074;9.110;2023-04-21T04:01:33;2.65;;;2.08;;
8929;SDS011;4500;49.074;9.110;2023-04-21T04:04:01;1.08;;;1.08;;
8929;SDS011;4500;49.074;9.110;2023-04-21T04:06:29;0.90;;;0.90;;
8929;SDS011;4500;49.074;9.110;2023-04-21T04:08:58;1.10;;;1.10;;
8929;SDS011;4500;49.074;9.110;2023-04-21T04:11:28;2.75;;;2.55;;
8929;SDS011;4500;49.074;9.110;2023-04-21T04:13:55;2.85;;;2.75;;
8929;SDS011;4500;49.074;9.110;2023-04-21T04:16:23;3.92;;;3.72;;
8929;SDS011;4500;49.074;9.110;2023-04-21T04:18:51;4.32;;;4.13;;
8929;SDS011;4500;49.074;9.110;2023-04-21T04:21:19;4.30;;;4.10;;
8929;SDS011;4500;49.074;9.110;2023-04-21T04:23:46;4.20;;;4.00;;
8929;SDS011;4500;49.074;9.110;2023-04-21T04:26:17;5.03;;;4.82;;
8929;SDS011;4500;49.074;9.110;2023-04-21T04:28:45;4.50;;;4.30;;
8929;SDS011;4500;49.074;9.110;2023-04-21T04:31:13;2.45;;;2.35;;
8929;SDS011;4500;49.074;9.110;2023-04-21T04:33:43;3.30;;;3.17;;
8929;SDS011;4500;49.074;9.110;2023-04-21T04:36:10;2.72;;;2.63;;
8929;SDS011;4500;49.074;9.110;2023-04-21T04:38:38;1.80;;;1.73;;
8929;SDS011;4500;49.074;9.110;2023-04-21T04:41:07;1.15;;;1.10;;
8929;SDS011;4500;49.074;9.110;2023-04-21T04:43:34;0.95;;;0.95;;
8929;SDS011;4500;49.074;9.110;2023-04-21T04:46:04;1.10;;;1.10;;
8929;SDS011;4500;49.074;9.110;2023-04-21T04:48:34;0.93;;;0.93;;
8929;SDS011;4500;49.074;9.110;2023-04-21T04:51:05;0.90;;;0.90;;
8929;SDS011;4500;49.074;9.110;2023-04-21T04:53:33;2.97;;;1.88;;
8929;SDS011;4500;49.074;9.110;2023-04-21T04:56:02;1.00;;;1.00;;
8929;SDS011;4500;49.074;9.110;2023-04-21T04:58:31;1.10;;;1.10;;
8929;SDS011;4500;49.074;9.110;2023-04-21T05:00:58;1.00;;;1.00;;
8929;SDS011;4500;49.074;9.110;2023-04-21T05:03:37;1.10;;;1.10;;
8929;SDS011;4500;49.074;9.110;2023-04-21T05:06:05;0.90;;;0.90;;
8929;SDS011;4500;49.074;9.110;2023-04-21T05:08:33;1.30;;;1.30;;
8929;SDS011;4500;49.074;9.110;2023-04-21T05:11:02;0.98;;;0.98;;
8929;SDS011;4500;49.074;9.110;2023-04-21T05:13:30;0.90;;;0.90;;
8929;SDS011;4500;49.074;9.110;2023-04-21T05:15:58;1.00;;;1.00;;
8929;SDS011;4500;49.074;9.110;2023-04-21T05:18:28;1.10;;;1.10;;
8929;SDS011;4500;49.074;9.110;2023-04-21T05:20:55;3.17;;;3.08;;
8929;SDS011;4500;49.074;9.110;2023-04-21T05:23:23;4.03;;;3.83;;
8929;SDS011;4500;49.074;9.110;2023-04-21T05:25:50;6.47;;;6.10;;
8929;SDS011;4500;49.074;9.110;2023-04-21T05:28:17;4.90;;;4.70;;
8929;SDS011;4500;49.074;9.110;2023-04-21T05:30:45;4.85;;;4.65;;
8929;SDS011;4500;49.074;9.110;2023-04-21T05:33:12;3.33;;;3.22;;
8929;SDS011;4500;49.074;9.110;2023-04-21T05:35:39;1.83;;;1.77;;
8929;SDS011;4500;49.074;9.110;2023-04-21T05:38:07;0.90;;;0.90;;
8929;SDS011;4500;49.074;9.110;2023-04-21T05:40:35;0.80;;;0.80;;
8929;SDS011;4500;49.074;9.110;2023-04-21T05:43:03;1.13;;;1.13;;
8929;SDS011;4500;49.074;9.110;2023-04-21T05:45:32;0.90;;;0.90;;
8929;SDS011;4500;49.074;9.110;2023-04-21T05:48:05;1.00;;;1.00;;
8929;SDS011;4500;49.074;9.110;2023-04-21T05:50:35;0.90;;;0.90;;
8929;SDS011;4500;49.074;9.110;2023-04-21T05:53:03;0.90;;;0.90;;
8929;SDS011;4500;49.074;9.110;2023-04-21T05:55:32;0.93;;;0.93;;
8929;SDS011;4500;49.074;9.110;2023-04-21T05:58:00;1.10;;;1.10;;
8929;SDS011;4500;49.074;9.110;2023-04-21T06:00:28;1.08;;;1.08;;
8929;SDS011;4500;49.074;9.110;2023-04-21T06:02:56;2.08;;;1.98;;
8929;SDS011;4500;49.074;9.110;2023-04-21T06:05:23;4.10;;;3.90;;
8929;SDS011;4500;49.074;9.110;2023-04-21T06:07:51;4.40;;;4.20;;
8929;SDS011;4500;49.074;9.110;2023-04-21T06:10:19;3.92;;;3.72;;
8929;SDS011;4500;49.074;9.110;2023-04-21T06:12:47;5.47;;;5.23;;
8929;SDS011;4500;49.074;9.110;2023-04-21T06:15:15;5.33;;;5.10;;
8929;SDS011;4500;49.074;9.110;2023-04-21T06:17:43;3.10;;;3.00;;
8929;SDS011;4500;49.074;9.110;2023-04-21T06:20:10;1.67;;;1.60;;
8929;SDS011;4500;49.074;9.110;2023-04-21T06:22:38;2.22;;;2.15;;
8929;SDS011;4500;49.074;9.110;2023-04-21T06:25:06;0.93;;;0.93;;
8929;SDS011;4500;49.074;9.110;2023-04-21T06:27:34;2.20;;;2.10;;
8929;SDS011;4500;49.074;9.110;2023-04-21T06:30:03;1.00;;;1.00;;
8929;SDS011;4500;49.074;9.110;2023-04-21T06:32:33;0.83;;;0.83;;
8929;SDS011;4500;49.074;9.110;2023-04-21T06:35:03;0.90;;;0.90;;
8929;SDS011;4500;49.074;9.110;2023-04-21T06:37:31;0.90;;;0.90;;
8929;SDS011;4500;49.074;9.110;2023-04-21T06:39:58;1.00;;;1.00;;
8929;SDS011;4500;49.074;9.110;2023-04-21T06:42:26;1.73;;;1.63;;
8929;SDS011;4500;49.074;9.110;2023-04-21T06:44:53;4.30;;;4.10;;
8929;SDS011;4500;49.074;9.110;2023-04-21T06:47:22;4.27;;;4.07;;
8929;SDS011;4500;49.074;9.110;2023-04-21T06:49:49;4.53;;;4.33;;
8929;SDS011;4500;49.074;9.110;2023-04-21T06:52:17;4.03;;;3.83;;
8929;SDS011;4500;49.074;9.110;2023-04-21T06:54:45;3.97;;;3.77;;
8929;SDS011;4500;49.074;9.110;2023-04-21T06:57:13;2.50;;;2.40;;
8929;SDS011;4500;49.074;9.110;2023-04-21T06:59:41;2.53;;;2.43;;
8929;SDS011;4500;49.074;9.110;2023-04-21T07:02:09;1.87;;;1.80;;
8929;SDS011;4500;49.074;9.110;2023-04-21T07:04:36;0.80;;;0.80;;
8929;SDS011;4500;49.074;9.110;2023-04-21T07:07:05;1.83;;;1.73;;
8929;SDS011;4500;49.074;9.110;2023-04-21T07:09:34;0.80;;;0.80;;
8929;SDS011;4500;49.074;9.110;2023-04-21T07:12:01;1.10;;;1.10;;
8929;SDS011;4500;49.074;9.110;2023-04-21T07:14:30;0.97;;;0.97;;
8929;SDS011;4500;49.074;9.110;2023-04-21T07:16:58;1.00;;;1.00;;
8929;SDS011;4500;49.074;9.110;2023-04-21T07:19:25;1.83;;;1.73;;
8929;SDS011;4500;49.074;9.110;2023-04-21T07:21:53;3.60;;;3.50;;
8929;SDS011;4500;49.074;9.110;2023-04-21T07:24:21;3.47;;;3.33;;
8929;SDS011;4500;49.074;9.110;2023-04-21T07:26:48;3.20;;;3.10;;
8929;SDS011;4500;49.074;9.110;2023-04-21T07:29:16;3.77;;;3.57;;
8929;SDS011;4500;49.074;9.110;2023-04-21T07:31:43;2.37;;;2.27;;
8929;SDS011;4500;49.074;9.110;2023-04-21T07:34:14;2.33;;;2.23;;
8929;SDS011;4500;49.074;9.110;2023-04-21T07:36:41;2.30;;;2.20;;
8929;SDS011;4500;49.074;9.110;2023-04-21T07:39:09;1.23;;;1.20;;
8929;SDS011;4500;49.074;9.110;2023-04-21T07:41:37;0.80;;;0.80;;
8929;SDS011;4500;49.074;9.110;2023-04-21T07:44:06;0.90;;;0.90;;
8929;SDS011;4500;49.074;9.110;2023-04-21T07:46:33;0.90;;;0.90;;
8929;SDS011;4500;49.074;9.110;2023-04-21T07:49:02;0.90;;;0.90;;
8929;SDS011;4500;49.074;9.110;2023-04-21T07:51:30;0.90;;;0.90;;
8929;SDS011;4500;49.074;9.110;2023-04-21T07:53:57;1.37;;;1.37;;
8929;SDS011;4500;49.074;9.110;2023-04-21T07:56:24;2.70;;;2.60;;
8929;SDS011;4500;49.074;9.110;2023-04-21T07:58:52;3.40;;;3.30;;
8929;SDS011;4500;49.074;9.110;2023-04-21T08:01:20;2.90;;;2.80;;
8929;SDS011;4500;49.074;9.110;2023-04-21T08:03:49;3.40;;;3.30;;
8929;SDS011;4500;49.074;9.110;2023-04-21T08:06:17;4.40;;;4.20;;
8929;SDS011;4500;49.074;9.110;2023-04-21T08:08:45;4.50;;;4.30;;
8929;SDS011;4500;49.074;9.110;2023-04-21T08:11:12;2.20;;;2.10;;
8929;SDS011;4500;49.074;9.110;2023-04-21T08:13:40;1.13;;;1.10;;
8929;SDS011;4500;49.074;9.110;2023-04-21T08:16:07;0.77;;;0.77;;
8929;SDS011;4500;49.074;9.110;2023-04-21T08:18:35;0.70;;;0.70;;
8929;SDS011;4500;49.074;9.110;2023-04-21T08:21:03;1.40;;;1.40;;
8929;SDS011;4500;49.074;9.110;2023-04-21T08:23:30;0.70;;;0.70;;
8929;SDS011;4500;49.074;9.110;2023-04-21T08:25:57;1.00;;;1.00;;
8929;SDS011;4500;49.074;9.110;2023-04-21T08:28:26;1.27;;;1.27;;
8929;SDS011;4500;49.074;9.110;2023-04-21T08:30:53;3.60;;;3.50;;
8929;SDS011;4500;49.074;9.110;2023-04-21T08:33:21;2.80;;;2.70;;
8929;SDS011;4500;49.074;9.110;2023-04-21T08:35:48;3.23;;;3.13;;
8929;SDS011;4500;49.074;9.110;2023-04-21T08:38:30;0.67;;;0.67;;
8929;SDS011;4500;49.074;9.110;2023-04-21T08:40:59;1.00;;;1.00;;
8929;SDS011;4500;49.074;9.110;2023-04-21T08:43:27;1.17;;;1.17;;
8929;SDS011;4500;49.074;9.110;2023-04-21T08:45:55;2.00;;;1.90;;
8929;SDS011;4500;49.074;9.110;2023-04-21T08:48:22;2.50;;;2.40;;
8929;SDS011;4500;49.074;9.110;2023-04-21T08:50:51;2.83;;;2.73;;
8929;SDS011;4500;49.074;9.110;2023-04-21T08:53:19;2.70;;;2.60;;
8929;SDS011;4500;49.074;9.110;2023-04-21T08:55:50;3.67;;;3.50;;
8929;SDS011;4500;49.074;9.110;2023-04-21T08:58:35;0.60;;;0.60;;
8929;SDS011;4500;49.074;9.110;2023-04-21T09:01:03;0.73;;;0.73;;
8929;SDS011;4500;49.074;9.110;2023-04-21T09:03:31;0.60;;;0.60;;
8929;SDS011;4500;49.074;9.110;2023-04-21T09:06:00;0.80;;;0.80;;
8929;SDS011;4500;49.074;9.110;2023-04-21T09:08:31;0.73;;;0.73;;
8929;SDS011;4500;49.074;9.110;2023-04-21T09:10:59;1.17;;;0.83;;
8929;SDS011;4500;49.074;9.110;2023-04-21T09:13:28;0.90;;;0.90;;
8929;SDS011;4500;49.074;9.110;2023-04-21T09:15:56;1.00;;;1.00;;
8929;SDS011;4500;49.074;9.110;2023-04-21T09:18:25;1.93;;;1.83;;
8929;SDS011;4500;49.074;9.110;2023-04-21T09:21:05;1.97;;;1.87;;
8929;SDS011;4500;49.074;9.110;2023-04-21T09:23:39;0.60;;;0.60;;
8929;SDS011;4500;49.074;9.110;2023-04-21T09:26:07;0.63;;;0.63;;
8929;SDS011;4500;49.074;9.110;2023-04-21T09:28:39;0.70;;;0.70;;
8929;SDS011;4500;49.074;9.110;2023-04-21T09:33:43;1.90;;;1.80;;
8929;SDS011;4500;49.074;9.110;2023-04-21T09:36:29;0.90;;;0.90;;
8929;SDS011;4500;49.074;9.110;2023-04-21T09:38:58;0.70;;;0.70;;
8929;SDS011;4500;49.074;9.110;2023-04-21T09:41:30;0.60;;;0.60;;
8929;SDS011;4500;49.074;9.110;2023-04-21T09:43:58;0.60;;;0.60;;
8929;SDS011;4500;49.074;9.110;2023-04-21T09:46:36;0.60;;;0.60;;
8929;SDS011;4500;49.074;9.110;2023-04-21T09:49:04;0.70;;;0.70;;
8929;SDS011;4500;49.074;9.110;2023-04-21T09:51:33;1.17;;;1.10;;
8929;SDS011;4500;49.074;9.110;2023-04-21T09:54:06;0.70;;;0.70;;
8929;SDS011;4500;49.074;9.110;2023-04-21T09:56:57;4.50;;;4.20;;
8929;SDS011;4500;49.074;9.110;2023-04-21T09:59:29;0.80;;;0.80;;
8929;SDS011;4500;49.074;9.110;2023-04-21T10:02:01;0.70;;;0.70;;
8929;SDS011;4500;49.074;9.110;2023-04-21T10:04:33;0.80;;;0.80;;
8929;SDS011;4500;49.074;9.110;2023-04-21T10:07:04;0.80;;;0.80;;
8929;SDS011;4500;49.074;9.110;2023-04-21T10:09:39;1.03;;;1.03;;
8929;SDS011;4500;49.074;9.110;2023-04-21T10:12:22;1.73;;;1.63;;
8929;SDS011;4500;49.074;9.110;2023-04-21T10:14:55;1.87;;;1.77;;
8929;SDS011;4500;49.074;9.110;2023-04-21T10:17:23;2.23;;;2.13;;
8929;SDS011;4500;49.074;9.110;2023-04-21T10:19:56;1.90;;;1.80;;
8929;SDS011;4500;49.074;9.110;2023-04-21T10:22:33;1.83;;;1.73;;
8929;SDS011;4500;49.074;9.110;2023-04-21T10:25:02;0.60;;;0.60;;
8929;SDS011;4500;49.074;9.110;2023-04-21T10:27:40;2.83;;;2.63;;
8929;SDS011;4500;49.074;9.110;2023-04-21T10:30:23;0.93;;;0.93;;
8929;SDS011;4500;49.074;9.110;2023-04-21T10:33:02;1.90;;;1.80;;
8929;SDS011;4500;49.074;9.110;2023-04-21T10:38:53;0.60;;;0.60;;
8929;SDS011;4500;49.074;9.110;2023-04-21T10:44:01;1.70;;;1.60;;
8929;SDS011;4500;49.074;9.110;2023-04-21T10:46:39;0.67;;;0.67;;
8929;SDS011;4500;49.074;9.110;2023-04-21T10:49:27;1.47;;;1.47;;
8929;SDS011;4500;49.074;9.110;2023-04-21T10:54:35;0.50;;;0.50;;
8929;SDS011;4500;49.074;9.110;2023-04-21T10:57:09;1.17;;;1.13;;
8929;SDS011;4500;49.074;9.110;2023-04-21T10:59:39;0.77;;;0.77;;
8929;SDS011;4500;49.074;9.110;2023-04-21T11:02:09;0.60;;;0.60;;
8929;SDS011;4500;49.074;9.110;2023-04-21T11:04:38;0.63;;;0.63;;
8929;SDS011;4500;49.074;9.110;2023-04-21T11:07:24;1.20;;;1.20;;
8929;SDS011;4500;49.074;9.110;2023-04-21T11:09:58;1.37;;;1.37;;
8929;SDS011;4500;49.074;9.110;2023-04-21T11:12:28;0.90;;;0.90;;
8929;SDS011;4500;49.074;9.110;2023-04-21T11:14:56;0.87;;;0.87;;
8929;SDS011;4500;49.074;9.110;2023-04-21T11:17:24;1.37;;;1.37;;
8929;SDS011;4500;49.074;9.110;2023-04-21T11:19:53;2.10;;;2.00;;
8929;SDS011;4500;49.074;9.110;2023-04-21T11:22:22;1.63;;;1.53;;
8929;SDS011;4500;49.074;9.110;2023-04-21T11:24:53;1.63;;;1.53;;
8929;SDS011;4500;49.074;9.110;2023-04-21T11:27:21;2.07;;;1.97;;
8929;SDS011;4500;49.074;9.110;2023-04-21T11:29:51;1.43;;;1.43;;
8929;SDS011;4500;49.074;9.110;2023-04-21T11:32:19;1.60;;;1.50;;
8929;SDS011;4500;49.074;9.110;2023-04-21T11:34:47;1.47;;;1.47;;
8929;SDS011;4500;49.074;9.110;2023-04-21T11:37:15;1.73;;;1.63;;
8929;SDS011;4500;49.074;9.110;2023-04-21T11:39:48;2.10;;;2.00;;
8929;SDS011;4500;49.074;9.110;2023-04-21T11:42:22;1.57;;;1.47;;
8929;SDS011;4500;49.074;9.110;2023-04-21T11:44:49;1.27;;;1.27;;
8929;SDS011;4500;49.074;9.110;2023-04-21T11:47:26;1.63;;;1.53;;
8929;SDS011;4500;49.074;9.110;2023-04-21T11:50:00;1.30;;;1.30;;
8929;SDS011;4500;49.074;9.110;2023-04-21T11:52:33;0.60;;;0.60;;
8929;SDS011;4500;49.074;9.110;2023-04-21T11:55:13;0.60;;;0.60;;
8929;SDS011;4500;49.074;9.110;2023-04-21T11:57:43;0.90;;;0.90;;
8929;SDS011;4500;49.074;9.110;2023-04-21T12:00:11;1.47;;;1.37;;
8929;SDS011;4500;49.074;9.110;2023-04-21T12:02:42;0.77;;;0.77;;
8929;SDS011;4500;49.074;9.110;2023-04-21T12:05:10;0.70;;;0.70;;
8929;SDS011;4500;49.074;9.110;2023-04-21T12:07:42;1.73;;;1.63;;
8929;SDS011;4500;49.074;9.110;2023-04-21T12:10:18;1.00;;;1.00;;
8929;SDS011;4500;49.074;9.110;2023-04-21T12:12:47;1.27;;;1.27;;
8929;SDS011;4500;49.074;9.110;2023-04-21T12:15:18;1.87;;;1.77;;
8929;SDS011;4500;49.074;9.110;2023-04-21T12:17:47;1.33;;;1.33;;
8929;SDS011;4500;49.074;9.110;2023-04-21T12:20:17;1.40;;;1.40;;
8929;SDS011;4500;49.074;9.110;2023-04-21T12:22:47;1.20;;;1.20;;
8929;SDS011;4500;49.074;9.110;2023-04-21T12:25:14;1.50;;;1.50;;
8929;SDS011;4500;49.074;9.110;2023-04-21T12:27:51;1.20;;;1.20;;
8929;SDS011;4500;49.074;9.110;2023-04-21T12:30:20;1.10;;;1.10;;
8929;SDS011;4500;49.074;9.110;2023-04-21T12:32:47;1.47;;;1.47;;
8929;SDS011;4500;49.074;9.110;2023-04-21T12:35:15;1.43;;;1.43;;
8929;SDS011;4500;49.074;9.110;2023-04-21T12:37:43;0.90;;;0.90;;
8929;SDS011;4500;49.074;9.110;2023-04-21T12:40:11;0.67;;;0.67;;
8929;SDS011;4500;49.074;9.110;2023-04-21T12:42:38;0.73;;;0.73;;
8929;SDS011;4500;49.074;9.110;2023-04-21T12:45:05;0.60;;;0.60;;
8929;SDS011;4500;49.074;9.110;2023-04-21T12:47:34;0.50;;;0.50;;
8929;SDS011;4500;49.074;9.110;2023-04-21T12:50:03;0.50;;;0.50;;
8929;SDS011;4500;49.074;9.110;2023-04-21T12:52:31;0.57;;;0.57;;
8929;SDS011;4500;49.074;9.110;2023-04-21T12:54:58;0.50;;;0.50;;
8929;SDS011;4500;49.074;9.110;2023-04-21T12:57:26;1.13;;;1.13;;
8929;SDS011;4500;49.074;9.110;2023-04-21T12:59:53;1.50;;;1.43;;
8929;SDS011;4500;49.074;9.110;2023-04-21T13:02:21;1.37;;;1.37;;
8929;SDS011;4500;49.074;9.110;2023-04-21T13:04:49;1.50;;;1.50;;
8929;SDS011;4500;49.074;9.110;2023-04-21T13:07:16;1.53;;;1.53;;
8929;SDS011;4500;49.074;9.110;2023-04-21T13:09:46;2.03;;;1.93;;
8929;SDS011;4500;49.074;9.110;2023-04-21T13:12:14;1.10;;;1.10;;
8929;SDS011;4500;49.074;9.110;2023-04-21T13:14:43;1.27;;;1.27;;
8929;SDS011;4500;49.074;9.110;2023-04-21T13:17:10;0.77;;;0.77;;
8929;SDS011;4500;49.074;9.110;2023-04-21T13:19:38;0.67;;;0.67;;
8929;SDS011;4500;49.074;9.110;2023-04-21T13:22:07;0.60;;;0.60;;
8929;SDS011;4500;49.074;9.110;2023-04-21T13:24:35;0.60;;;0.60;;
8929;SDS011;4500;49.074;9.110;2023-04-21T13:27:05;0.50;;;0.50;;
8929;SDS011;4500;49.074;9.110;2023-04-21T13:29:33;0.57;;;0.50;;
8929;SDS011;4500;49.074;9.110;2023-04-21T13:32:02;0.50;;;0.50;;
8929;SDS011;4500;49.074;9.110;2023-04-21T13:34:31;0.50;;;0.50;;
8929;SDS011;4500;49.074;9.110;2023-04-21T13:37:00;0.60;;;0.60;;
8929;SDS011;4500;49.074;9.110;2023-04-21T13:39:27;0.70;;;0.70;;
8929;SDS011;4500;49.074;9.110;2023-04-21T13:41:55;1.33;;;1.33;;
8929;SDS011;4500;49.074;9.110;2023-04-21T13:44:22;1.33;;;1.33;;
8929;SDS011;4500;49.074;9.110;2023-04-21T13:46:50;1.17;;;1.17;;
8929;SDS011;4500;49.074;9.110;2023-04-21T13:49:19;1.33;;;1.33;;
8929;SDS011;4500;49.074;9.110;2023-04-21T13:51:46;1.27;;;1.27;;
8929;SDS011;4500;49.074;9.110;2023-04-21T13:54:14;1.27;;;1.27;;
8929;SDS011;4500;49.074;9.110;2023-04-21T13:56:42;1.07;;;1.07;;
8929;SDS011;4500;49.074;9.110;2023-04-21T13:59:09;0.73;;;0.73;;
8929;SDS011;4500;49.074;9.110;2023-04-21T14:01:42;0.77;;;0.77;;
8929;SDS011;4500;49.074;9.110;2023-04-21T14:04:11;0.53;;;0.53;;
8929;SDS011;4500;49.074;9.110;2023-04-21T14:06:41;0.77;;;0.77;;
8929;SDS011;4500;49.074;9.110;2023-04-21T14:09:09;0.67;;;0.67;;
8929;SDS011;4500;49.074;9.110;2023-04-21T14:11:37;0.50;;;0.50;;
8929;SDS011;4500;49.074;9.110;2023-04-21T14:14:05;0.50;;;0.50;;
8929;SDS011;4500;49.074;9.110;2023-04-21T14:16:35;0.50;;;0.50;;
8929;SDS011;4500;49.074;9.110;2023-04-21T14:19:04;0.50;;;0.50;;
8929;SDS011;4500;49.074;9.110;2023-04-21T14:21:32;0.50;;;0.50;;
8929;SDS011;4500;49.074;9.110;2023-04-21T14:24:00;0.50;;;0.50;;
8929;SDS011;4500;49.074;9.110;2023-04-21T14:26:27;0.70;;;0.70;;
8929;SDS011;4500;49.074;9.110;2023-04-21T14:28:55;0.97;;;0.97;;
8929;SDS011;4500;49.074;9.110;2023-04-21T14:31:22;1.10;;;1.10;;
8929;SDS011;4500;49.074;9.110;2023-04-21T14:33:50;0.90;;;0.90;;
8929;SDS011;4500;49.074;9.110;2023-04-21T14:36:17;1.20;;;1.20;;
8929;SDS011;4500;49.074;9.110;2023-04-21T14:38:45;1.10;;;1.10;;
8929;SDS011;4500;49.074;9.110;2023-04-21T14:41:13;1.03;;;1.03;;
8929;SDS011;4500;49.074;9.110;2023-04-21T14:43:40;0.70;;;0.70;;
8929;SDS011;4500;49.074;9.110;2023-04-21T14:46:08;0.63;;;0.63;;
8929;SDS011;4500;49.074;9.110;2023-04-21T14:48:35;0.50;;;0.50;;
8929;SDS011;4500;49.074;9.110;2023-04-21T14:51:03;0.50;;;0.50;;
8929;SDS011;4500;49.074;9.110;2023-04-21T14:53:34;0.50;;;0.50;;
8929;SDS011;4500;49.074;9.110;2023-04-21T14:56:03;0.50;;;0.50;;
8929;SDS011;4500;49.074;9.110;2023-04-21T14:58:30;0.50;;;0.50;;
8929;SDS011;4500;49.074;9.110;2023-04-21T15:00:58;0.50;;;0.50;;
8929;SDS011;4500;49.074;9.110;2023-04-21T15:03:25;0.80;;;0.80;;
8929;SDS011;4500;49.074;9.110;2023-04-21T15:05:53;0.93;;;0.93;;
8929;SDS011;4500;49.074;9.110;2023-04-21T15:08:21;0.90;;;0.90;;
8929;SDS011;4500;49.074;9.110;2023-04-21T15:10:48;0.97;;;0.97;;
8929;SDS011;4500;49.074;9.110;2023-04-21T15:13:16;0.90;;;0.90;;
8929;SDS011;4500;49.074;9.110;2023-04-21T15:15:44;0.70;;;0.70;;
8929;SDS011;4500;49.074;9.110;2023-04-21T15:18:12;0.77;;;0.77;;
8929;SDS011;4500;49.074;9.110;2023-04-21T15:20:40;1.80;;;1.70;;
8929;SDS011;4500;49.074;9.110;2023-04-21T15:23:11;0.60;;;0.60;;
8929;SDS011;4500;49.074;9.110;2023-04-21T15:25:38;0.50;;;0.50;;
8929;SDS011;4500;49.074;9.110;2023-04-21T15:28:06;0.50;;;0.50;;
8929;SDS011;4500;49.074;9.110;2023-04-21T15:30:34;0.50;;;0.50;;
8929;SDS011;4500;49.074;9.110;2023-04-21T15:33:02;0.50;;;0.40;;
8929;SDS011;4500;49.074;9.110;2023-04-21T15:35:31;0.50;;;0.40;;
8929;SDS011;4500;49.074;9.110;2023-04-21T15:37:58;0.50;;;0.50;;